createdAt,value
2019-03-10T00:02:11.344Z,12.20
2019-03-10T00:04:40.958Z,12.20
2019-03-10T00:07:10.634Z,12.30
2019-03-10T00:09:40.275Z,12.20
2019-03-10T00:12:09.738Z,12.20
2019-03-10T00:14:40.558Z,12.20
2019-03-10T00:17:10.623Z,12.20
2019-03-10T00:19:40.026Z,12.20
2019-03-10T00:22:09.318Z,12.20
2019-03-10T00:24:38.806Z,12.10
2019-03-10T00:27:08.202Z,11.80
2019-03-10T00:29:37.545Z,11.30
2019-03-10T00:32:06.930Z,10.70
2019-03-10T00:34:37.299Z,10.00
2019-03-10T00:37:06.588Z,9.40
2019-03-10T00:40:14.955Z,9.00
2019-03-10T00:43:31.299Z,8.80
2019-03-10T00:46:56.621Z,8.60
2019-03-10T00:49:53.914Z,8.50
2019-03-10T00:52:26.982Z,8.50
2019-03-10T00:54:56.301Z,8.30
2019-03-10T00:57:25.591Z,8.20
2019-03-10T00:59:54.925Z,8.00
2019-03-10T01:02:24.372Z,8.00
2019-03-10T01:04:53.632Z,8.00
2019-03-10T01:07:23.043Z,8.00
2019-03-10T01:09:52.298Z,7.90
2019-03-10T01:12:21.627Z,7.80
2019-03-10T01:14:51.042Z,7.80
2019-03-10T01:17:21.024Z,7.70
2019-03-10T01:19:52.526Z,7.60
2019-03-10T01:22:22.311Z,7.50
2019-03-10T01:24:54.839Z,7.50
2019-03-10T01:27:24.175Z,7.50
2019-03-10T01:29:55.909Z,7.50
2019-03-10T01:32:54.434Z,7.40
2019-03-10T01:35:27.199Z,7.40
2019-03-10T01:37:56.627Z,7.30
2019-03-10T01:40:25.902Z,7.30
2019-03-10T01:42:55.378Z,7.30
2019-03-10T01:45:25.837Z,7.30
2019-03-10T01:47:55.660Z,7.30
2019-03-10T01:50:27.126Z,7.30
2019-03-10T01:52:57.366Z,7.20
2019-03-10T01:55:26.626Z,7.30
2019-03-10T01:57:55.921Z,7.20
2019-03-10T02:00:25.282Z,7.20
2019-03-10T02:02:54.650Z,7.20
2019-03-10T02:05:23.938Z,7.20
2019-03-10T02:07:53.395Z,7.20
2019-03-10T02:10:23.231Z,7.20
2019-03-10T02:12:52.687Z,7.20
2019-03-10T02:15:25.159Z,7.10
2019-03-10T02:17:54.624Z,7.10
2019-03-10T02:20:23.898Z,7.10
2019-03-10T02:22:53.366Z,7.00
2019-03-10T02:25:25.701Z,7.00
2019-03-10T02:27:55.118Z,7.00
2019-03-10T02:30:27.052Z,7.10
2019-03-10T02:32:56.521Z,7.00
2019-03-10T02:35:25.803Z,7.10
2019-03-10T02:37:55.273Z,7.10
2019-03-10T02:40:27.377Z,7.10
2019-03-10T02:42:56.783Z,7.10
2019-03-10T02:45:28.288Z,7.10
2019-03-10T02:47:57.716Z,7.10
2019-03-10T02:50:27.194Z,7.20
2019-03-10T02:52:56.751Z,7.10
2019-03-10T02:55:26.097Z,7.10
2019-03-10T02:57:56.014Z,7.10
2019-03-10T03:00:26.394Z,7.10
2019-03-10T03:02:55.876Z,7.10
2019-03-10T03:05:25.133Z,7.00
2019-03-10T03:07:54.529Z,7.00
2019-03-10T03:10:23.842Z,7.00
2019-03-10T03:12:53.316Z,7.00
2019-03-10T03:15:23.721Z,7.00
2019-03-10T03:17:53.356Z,7.10
2019-03-10T03:20:22.703Z,7.10
2019-03-10T03:22:52.137Z,7.10
2019-03-10T03:25:21.526Z,7.10
2019-03-10T03:27:51.059Z,7.20
2019-03-10T03:30:20.453Z,7.20
2019-03-10T03:32:50.018Z,7.20
2019-03-10T03:35:55.605Z,7.30
2019-03-10T03:38:39.932Z,7.30
2019-03-10T03:41:13.098Z,7.30
2019-03-10T03:43:42.564Z,7.30
2019-03-10T03:46:12.043Z,7.30
2019-03-10T03:48:41.501Z,7.30
2019-03-10T03:51:10.770Z,7.30
2019-03-10T03:53:40.344Z,7.10
2019-03-10T03:56:10.013Z,7.10
2019-03-10T03:58:39.469Z,7.10
2019-03-10T04:01:12.927Z,7.10
2019-03-10T04:03:42.222Z,7.10
2019-03-10T04:06:11.645Z,7.10
2019-03-10T04:08:41.280Z,7.00
2019-03-10T04:11:10.634Z,6.90
2019-03-10T04:13:40.016Z,6.70
2019-03-10T04:16:09.805Z,6.70
2019-03-10T04:18:39.253Z,6.70
2019-03-10T04:21:08.501Z,6.60
2019-03-10T04:23:37.918Z,6.60
2019-03-10T04:26:07.242Z,6.50
2019-03-10T04:28:36.678Z,6.50
2019-03-10T04:31:05.936Z,6.50
2019-03-10T04:33:35.439Z,6.60
2019-03-10T04:36:04.723Z,6.70
2019-03-10T04:38:34.080Z,6.60
2019-03-10T04:41:03.312Z,6.60
2019-03-10T04:43:32.871Z,6.50
2019-03-10T04:46:02.140Z,6.50
2019-03-10T04:48:31.626Z,6.50
2019-03-10T04:51:00.926Z,6.40
2019-03-10T04:53:30.794Z,6.40
2019-03-10T04:56:08.337Z,6.40
2019-03-10T04:58:41.439Z,6.40
2019-03-10T05:01:11.205Z,6.40
2019-03-10T05:03:40.554Z,6.30
2019-03-10T05:06:10.091Z,6.30
2019-03-10T05:08:39.966Z,6.40
2019-03-10T05:11:09.242Z,6.50
2019-03-10T05:13:38.769Z,6.50
2019-03-10T05:16:08.100Z,6.50
2019-03-10T05:18:37.487Z,6.40
2019-03-10T05:21:06.751Z,6.40
2019-03-10T05:23:40.735Z,6.40
2019-03-10T05:26:10.179Z,6.40
2019-03-10T05:28:42.720Z,6.30
2019-03-10T05:31:12.042Z,6.40
2019-03-10T05:33:41.366Z,6.40
2019-03-10T05:36:11.133Z,6.40
2019-03-10T05:38:41.546Z,6.50
2019-03-10T05:41:10.812Z,6.60
2019-03-10T05:43:40.301Z,6.70
2019-03-10T05:46:09.568Z,6.70
2019-03-10T05:48:39.074Z,6.70
2019-03-10T05:51:08.377Z,6.80
2019-03-10T05:53:37.754Z,6.90
2019-03-10T05:56:07.094Z,6.90
2019-03-10T05:58:36.638Z,6.90
2019-03-10T06:01:06.008Z,6.90
2019-03-10T06:03:35.286Z,6.90
2019-03-10T06:06:05.645Z,6.90
2019-03-10T06:08:35.142Z,6.90
2019-03-10T06:11:04.395Z,6.90
2019-03-10T06:13:33.741Z,6.90
2019-03-10T06:16:03.193Z,7.00
2019-03-10T06:18:32.684Z,6.90
2019-03-10T06:21:01.922Z,6.90
2019-03-10T06:23:31.424Z,6.90
2019-03-10T06:26:00.785Z,6.90
2019-03-10T06:28:31.339Z,6.90
2019-03-10T06:31:00.730Z,7.00
2019-03-10T06:33:30.213Z,6.90
2019-03-10T06:35:59.713Z,7.00
2019-03-10T06:38:28.984Z,7.00
2019-03-10T06:40:58.271Z,7.00
2019-03-10T06:43:27.645Z,7.10
2019-03-10T06:45:56.921Z,7.10
2019-03-10T06:48:28.203Z,7.20
2019-03-10T06:50:57.552Z,7.30
2019-03-10T06:53:26.981Z,7.30
2019-03-10T06:55:56.304Z,7.40
2019-03-10T06:58:25.713Z,7.40
2019-03-10T07:00:55.158Z,7.50
2019-03-10T07:03:24.472Z,7.50
2019-03-10T07:05:53.800Z,7.60
2019-03-10T07:08:23.178Z,7.70
2019-03-10T07:10:52.426Z,7.80
2019-03-10T07:13:22.004Z,7.90
2019-03-10T07:15:51.395Z,8.00
2019-03-10T07:18:20.837Z,8.10
2019-03-10T07:20:50.145Z,8.20
2019-03-10T07:23:19.630Z,8.40
2019-03-10T07:26:05.186Z,8.50
2019-03-10T07:28:41.680Z,8.60
2019-03-10T07:31:35.474Z,8.60
2019-03-10T07:34:29.930Z,8.60
2019-03-10T07:37:30.156Z,8.60
2019-03-10T07:40:33.511Z,8.60
2019-03-10T07:43:27.982Z,8.70
2019-03-10T07:46:19.246Z,8.70
2019-03-10T07:49:04.840Z,8.70
2019-03-10T07:51:53.647Z,8.80
2019-03-10T07:54:41.024Z,8.70
2019-03-10T07:57:28.531Z,8.60
2019-03-10T08:00:15.591Z,8.40
2019-03-10T08:03:09.892Z,8.30
2019-03-10T08:06:01.497Z,8.40
2019-03-10T08:08:53.770Z,8.60
2019-03-10T08:11:42.129Z,8.90
2019-03-10T08:14:28.886Z,9.00
2019-03-10T08:17:07.702Z,9.30
2019-03-10T08:20:05.577Z,9.50
2019-03-10T08:22:42.970Z,9.70
2019-03-10T08:25:31.462Z,9.90
2019-03-10T08:28:23.393Z,10.00
2019-03-10T08:31:14.491Z,10.10
2019-03-10T08:33:56.516Z,10.20
2019-03-10T08:36:57.583Z,10.10
2019-03-10T08:39:49.053Z,9.90
2019-03-10T08:42:26.040Z,9.70
2019-03-10T08:45:29.165Z,9.50
2019-03-10T08:48:21.005Z,9.40
2019-03-10T08:51:01.670Z,9.30
2019-03-10T08:53:51.784Z,9.20
2019-03-10T08:56:30.093Z,9.20
2019-03-10T08:59:16.845Z,9.20
2019-03-10T09:02:03.977Z,9.30
2019-03-10T09:04:50.402Z,9.40
2019-03-10T09:07:35.602Z,9.40
2019-03-10T09:10:24.438Z,9.30
2019-03-10T09:13:10.766Z,9.20
2019-03-10T09:16:02.757Z,9.20
2019-03-10T09:19:00.158Z,9.20
2019-03-10T09:21:42.148Z,9.20
2019-03-10T09:24:29.107Z,9.10
2019-03-10T09:27:09.837Z,9.10
2019-03-10T09:30:00.905Z,9.00
2019-03-10T09:32:52.747Z,9.00
2019-03-10T09:35:27.442Z,9.00
2019-03-10T09:38:21.493Z,9.00
2019-03-10T09:41:12.926Z,9.00
2019-03-10T09:44:00.261Z,8.90
2019-03-10T09:46:39.214Z,8.80
2019-03-10T09:49:38.241Z,8.70
2019-03-10T09:52:19.958Z,8.60
2019-03-10T09:55:07.120Z,8.60
2019-03-10T09:57:55.485Z,8.60
2019-03-10T10:00:49.944Z,8.60
2019-03-10T10:03:27.379Z,8.50
2019-03-10T10:06:10.345Z,8.50
2019-03-10T10:08:46.995Z,8.40
2019-03-10T10:11:23.734Z,8.40
2019-03-10T10:14:12.202Z,8.40
2019-03-10T10:17:00.958Z,8.30
2019-03-10T10:19:49.236Z,8.40
2019-03-10T10:22:41.450Z,8.40
2019-03-10T10:25:27.775Z,8.50
2019-03-10T10:28:07.022Z,8.50
2019-03-10T10:30:57.426Z,8.50
2019-03-10T10:33:44.174Z,8.60
2019-03-10T10:36:25.411Z,8.60
2019-03-10T10:39:14.115Z,8.60
2019-03-10T10:42:11.813Z,8.80
2019-03-10T10:44:57.491Z,8.90
2019-03-10T10:47:45.086Z,8.90
2019-03-10T10:50:23.549Z,8.80
2019-03-10T10:53:16.291Z,8.70
2019-03-10T10:56:03.730Z,8.60
2019-03-10T10:58:53.302Z,8.60
2019-03-10T11:01:41.781Z,8.70
2019-03-10T11:04:19.417Z,8.90
2019-03-10T11:06:59.002Z,9.00
2019-03-10T11:09:47.334Z,9.00
2019-03-10T11:12:26.983Z,9.00
2019-03-10T11:15:04.684Z,9.00
2019-03-10T11:17:45.440Z,8.90
2019-03-10T11:20:30.457Z,8.70
2019-03-10T11:23:15.790Z,8.70
2019-03-10T11:26:13.251Z,8.80
2019-03-10T11:29:04.800Z,8.80
2019-03-10T11:31:41.592Z,8.90
2019-03-10T11:34:28.742Z,8.90
2019-03-10T11:37:25.605Z,9.10
2019-03-10T11:40:07.990Z,9.20
2019-03-10T11:42:47.931Z,9.30
2019-03-10T11:45:43.701Z,9.30
2019-03-10T11:48:21.202Z,9.30
2019-03-10T11:51:11.529Z,9.30
2019-03-10T11:53:49.804Z,9.20
2019-03-10T11:56:26.231Z,9.10
2019-03-10T11:59:00.919Z,9.00
2019-03-10T12:01:55.395Z,9.00
2019-03-10T12:04:56.217Z,9.00
2019-03-10T12:07:34.311Z,8.90
2019-03-10T12:10:04.304Z,8.90
2019-03-10T12:12:36.124Z,9.00
2019-03-10T12:15:07.534Z,8.90
2019-03-10T12:17:43.101Z,9.00
2019-03-10T12:20:16.176Z,9.00
2019-03-10T12:22:45.650Z,9.00
2019-03-10T12:25:15.239Z,9.10
2019-03-10T12:27:44.566Z,9.00
2019-03-10T12:30:14.451Z,9.00
2019-03-10T12:32:43.814Z,8.90
2019-03-10T12:35:13.380Z,8.80
2019-03-10T12:37:46.065Z,8.80
2019-03-10T12:40:15.674Z,8.80
2019-03-10T12:42:46.397Z,8.80
2019-03-10T12:45:15.967Z,8.90
2019-03-10T12:47:45.294Z,9.00
2019-03-10T12:50:18.778Z,9.20
2019-03-10T12:52:49.444Z,9.40
2019-03-10T12:55:18.909Z,9.40
2019-03-10T12:57:48.307Z,9.50
2019-03-10T13:00:20.028Z,9.70
2019-03-10T13:02:49.425Z,9.90
2019-03-10T13:05:19.279Z,10.00
2019-03-10T13:07:49.727Z,10.20
2019-03-10T13:10:19.985Z,10.40
2019-03-10T13:12:50.308Z,10.50
2019-03-10T13:15:20.357Z,10.60
2019-03-10T13:17:49.794Z,10.70
2019-03-10T13:20:27.878Z,10.90
2019-03-10T13:22:50.568Z,11.20
2019-03-10T13:25:22.154Z,11.60
2019-03-10T13:27:51.564Z,11.90
2019-03-10T13:30:21.325Z,12.10
2019-03-10T13:32:52.358Z,12.40
2019-03-10T13:35:22.903Z,12.50
2019-03-10T13:37:53.513Z,12.70
2019-03-10T13:40:24.238Z,12.90
2019-03-10T13:42:54.094Z,13.20
2019-03-10T13:45:23.671Z,13.40
2019-03-10T13:47:53.179Z,13.50
2019-03-10T13:50:22.805Z,13.60
2019-03-10T13:52:56.807Z,13.70
2019-03-10T13:55:28.453Z,13.80
2019-03-10T13:57:58.147Z,14.00
2019-03-10T14:00:27.597Z,14.10
2019-03-10T14:02:57.545Z,14.30
2019-03-10T14:05:27.102Z,14.30
2019-03-10T14:07:56.652Z,14.30
2019-03-10T14:10:26.078Z,14.20
2019-03-10T14:12:55.828Z,14.00
2019-03-10T14:15:25.154Z,14.00
2019-03-10T14:17:56.922Z,13.90
2019-03-10T14:20:26.227Z,13.80
2019-03-10T14:22:55.790Z,13.60
2019-03-10T14:25:25.642Z,13.40
2019-03-10T14:27:55.295Z,13.30
2019-03-10T14:30:24.857Z,13.20
2019-03-10T14:32:54.330Z,13.20
2019-03-10T14:35:25.428Z,13.20
2019-03-10T14:37:54.891Z,13.20
2019-03-10T14:40:26.848Z,13.20
2019-03-10T14:42:57.961Z,13.20
2019-03-10T14:45:28.494Z,13.30
2019-03-10T14:47:58.101Z,13.40
2019-03-10T14:50:27.457Z,13.60
2019-03-10T14:52:57.124Z,13.90
2019-03-10T14:55:28.934Z,14.00
2019-03-10T14:57:59.430Z,14.10
2019-03-10T15:00:28.840Z,14.20
2019-03-10T15:02:58.341Z,14.20
2019-03-10T15:05:27.987Z,14.20
2019-03-10T15:07:58.472Z,14.10
2019-03-10T15:10:28.045Z,14.10
2019-03-10T15:13:00.277Z,14.10
2019-03-10T15:15:30.254Z,14.20
2019-03-10T15:18:03.437Z,14.20
2019-03-10T15:20:32.938Z,14.20
2019-03-10T15:23:11.793Z,14.20
2019-03-10T15:25:43.068Z,14.30
2019-03-10T15:28:12.453Z,14.30
2019-03-10T15:30:42.657Z,14.30
2019-03-10T15:33:12.078Z,14.40
2019-03-10T15:35:42.633Z,14.40
2019-03-10T15:38:12.062Z,14.30
2019-03-10T15:40:42.618Z,14.30
2019-03-10T15:43:12.998Z,14.40
2019-03-10T15:45:44.310Z,14.40
2019-03-10T15:48:14.975Z,14.40
2019-03-10T15:50:44.655Z,14.40
2019-03-10T15:53:14.353Z,14.40
2019-03-10T15:55:44.155Z,14.40
2019-03-10T15:58:16.069Z,14.40
2019-03-10T16:00:47.771Z,14.30
2019-03-10T16:03:17.202Z,14.20
2019-03-10T16:06:04.131Z,14.20
2019-03-10T16:08:40.840Z,14.20
2019-03-10T16:11:13.196Z,14.20
2019-03-10T16:13:47.869Z,14.20
2019-03-10T16:16:19.239Z,14.10
2019-03-10T16:18:53.062Z,14.10
2019-03-10T16:21:22.759Z,14.00
2019-03-10T16:23:57.240Z,13.90
2019-03-10T16:26:26.783Z,13.90
2019-03-10T16:28:58.723Z,13.90
2019-03-10T16:31:30.880Z,13.90
2019-03-10T16:34:04.999Z,13.80
2019-03-10T16:36:35.527Z,13.80
2019-03-10T16:39:10.298Z,13.70
2019-03-10T16:41:42.686Z,13.70
2019-03-10T16:44:12.597Z,13.80
2019-03-10T16:46:42.165Z,13.80
2019-03-10T16:49:14.789Z,13.80
2019-03-10T16:51:52.157Z,13.80
2019-03-10T16:54:22.681Z,13.70
2019-03-10T16:56:52.205Z,13.70
2019-03-10T16:59:23.088Z,13.80
2019-03-10T17:01:52.993Z,13.80
2019-03-10T17:04:24.522Z,13.90
2019-03-10T17:06:55.294Z,13.90
2019-03-10T17:09:24.831Z,13.90
2019-03-10T17:11:54.468Z,13.70
2019-03-10T17:14:23.907Z,13.70
2019-03-10T17:16:55.441Z,13.60
2019-03-10T17:19:24.749Z,13.60
2019-03-10T17:21:54.018Z,13.60
2019-03-10T17:24:23.474Z,13.70
2019-03-10T17:26:53.151Z,13.60
2019-03-10T17:29:22.683Z,13.70
2019-03-10T17:31:52.045Z,13.70
2019-03-10T17:34:21.598Z,13.70
2019-03-10T17:36:50.960Z,13.80
2019-03-10T17:39:27.494Z,14.00
2019-03-10T17:42:03.887Z,14.10
2019-03-10T17:44:41.514Z,14.20
2019-03-10T17:47:10.263Z,14.10
2019-03-10T17:49:40.715Z,14.00
2019-03-10T17:52:14.503Z,13.90
2019-03-10T17:54:43.050Z,13.90
2019-03-10T17:57:12.766Z,13.90
2019-03-10T17:59:42.578Z,14.00
2019-03-10T18:02:11.987Z,14.00
2019-03-10T18:04:42.782Z,14.00
2019-03-10T18:07:12.091Z,13.90
2019-03-10T18:09:42.636Z,13.90
2019-03-10T18:12:11.943Z,13.80
2019-03-10T18:14:43.463Z,13.70
2019-03-10T18:17:12.961Z,13.70
2019-03-10T18:19:42.265Z,13.60
2019-03-10T18:22:12.089Z,13.60
2019-03-10T18:24:41.559Z,13.50
2019-03-10T18:27:10.945Z,13.40
2019-03-10T18:29:42.849Z,13.30
2019-03-10T18:32:12.224Z,13.30
2019-03-10T18:34:41.759Z,13.20
2019-03-10T18:37:11.584Z,13.10
2019-03-10T18:39:41.111Z,13.10
2019-03-10T18:42:18.567Z,13.10
2019-03-10T18:44:47.494Z,13.00
2019-03-10T18:47:18.149Z,13.00
2019-03-10T18:49:47.774Z,12.90
2019-03-10T18:52:26.510Z,12.90
2019-03-10T18:54:58.154Z,12.90
2019-03-10T18:57:27.870Z,12.90
2019-03-10T18:59:57.289Z,13.00
2019-03-10T19:02:32.391Z,13.00
2019-03-10T19:05:22.962Z,12.90
2019-03-10T19:07:52.371Z,12.90
2019-03-10T19:10:21.763Z,12.80
2019-03-10T19:12:52.463Z,12.80
2019-03-10T19:15:21.892Z,12.90
2019-03-10T19:17:52.702Z,12.90
2019-03-10T19:20:22.335Z,12.80
2019-03-10T19:22:54.001Z,12.70
2019-03-10T19:25:23.930Z,12.60
2019-03-10T19:27:56.460Z,12.70
2019-03-10T19:30:25.739Z,12.80
2019-03-10T19:32:55.160Z,12.70
2019-03-10T19:35:26.968Z,12.60
2019-03-10T19:37:56.616Z,12.60
2019-03-10T19:40:30.651Z,12.50
2019-03-10T19:43:08.768Z,12.50
2019-03-10T19:45:38.876Z,12.50
2019-03-10T19:48:14.105Z,12.60
2019-03-10T19:50:43.680Z,12.60
2019-03-10T19:53:13.134Z,12.60
2019-03-10T19:55:42.874Z,12.60
2019-03-10T19:58:17.094Z,12.50
2019-03-10T20:00:46.579Z,12.50
2019-03-10T20:03:24.609Z,12.50
2019-03-10T20:05:49.700Z,12.60
2019-03-10T20:08:21.980Z,12.60
2019-03-10T20:10:52.667Z,12.60
2019-03-10T20:13:27.357Z,12.60
2019-03-10T20:15:56.698Z,12.70
2019-03-10T20:18:30.894Z,12.80
2019-03-10T20:21:00.261Z,12.80
2019-03-10T20:23:30.248Z,12.90
2019-03-10T20:25:59.633Z,12.90
2019-03-10T20:28:29.085Z,12.80
2019-03-10T20:31:15.799Z,12.80
2019-03-10T20:33:45.137Z,12.70
2019-03-10T20:36:14.649Z,12.70
2019-03-10T20:38:45.046Z,12.60
2019-03-10T20:41:14.679Z,12.60
2019-03-10T20:43:44.947Z,12.50
2019-03-10T20:46:14.270Z,12.40
2019-03-10T20:48:43.583Z,12.40
2019-03-10T20:51:13.114Z,12.30
2019-03-10T20:53:43.674Z,12.30
2019-03-10T20:56:13.210Z,12.20
2019-03-10T20:58:42.774Z,12.20
2019-03-10T21:01:18.231Z,12.20
2019-03-10T21:03:43.915Z,12.10
2019-03-10T21:06:13.246Z,12.10
2019-03-10T21:08:42.722Z,12.10
2019-03-10T21:11:26.971Z,12.00
2019-03-10T21:14:15.690Z,12.00
2019-03-10T21:16:45.224Z,12.00
2019-03-10T21:19:15.043Z,11.90
2019-03-10T21:21:44.365Z,11.80
2019-03-10T21:24:23.235Z,11.80
2019-03-10T21:26:54.048Z,11.90
2019-03-10T21:29:25.506Z,11.80
2019-03-10T21:31:55.337Z,11.80
2019-03-10T21:34:24.795Z,11.80
2019-03-10T21:36:54.232Z,11.80
2019-03-10T21:39:33.960Z,11.70
2019-03-10T21:41:57.556Z,11.70
2019-03-10T21:44:28.080Z,11.70
2019-03-10T21:46:57.586Z,11.60
2019-03-10T21:49:27.279Z,11.60
2019-03-10T21:52:12.766Z,11.70
2019-03-10T21:54:45.597Z,11.70
2019-03-10T21:57:14.958Z,11.60
2019-03-10T21:59:44.579Z,11.60
2019-03-10T22:02:13.958Z,11.50
2019-03-10T22:04:43.503Z,11.50
2019-03-10T22:07:12.845Z,11.40
2019-03-10T22:09:43.374Z,11.40
2019-03-10T22:12:12.710Z,11.40
2019-03-10T22:14:42.017Z,11.40
2019-03-10T22:17:11.336Z,11.30
2019-03-10T22:19:40.966Z,11.30
2019-03-10T22:22:10.310Z,11.30
2019-03-10T22:24:39.720Z,11.20
2019-03-10T22:27:09.008Z,11.20
2019-03-10T22:29:38.490Z,11.10
2019-03-10T22:32:07.886Z,11.20
2019-03-10T22:34:37.330Z,11.20
2019-03-10T22:37:06.724Z,11.20
2019-03-10T22:39:36.238Z,11.10
2019-03-10T22:42:05.881Z,11.10
2019-03-10T22:44:35.408Z,11.00
2019-03-10T22:47:04.682Z,10.90
2019-03-10T22:49:34.148Z,10.90
2019-03-10T22:52:03.508Z,10.80
2019-03-10T22:54:32.974Z,10.80
2019-03-10T22:57:05.286Z,10.80
2019-03-10T22:59:34.596Z,10.70
2019-03-10T23:02:06.841Z,10.60
2019-03-10T23:04:36.158Z,10.60
2019-03-10T23:07:05.592Z,10.70
2019-03-10T23:09:34.919Z,10.80
2019-03-10T23:12:04.406Z,10.70
2019-03-10T23:14:33.715Z,10.80
2019-03-10T23:17:06.112Z,10.80
2019-03-10T23:19:35.423Z,10.80
2019-03-10T23:22:05.051Z,10.80
2019-03-10T23:24:34.361Z,10.80
2019-03-10T23:27:04.815Z,10.80
2019-03-10T23:29:34.448Z,10.90
2019-03-10T23:32:04.805Z,10.90
2019-03-10T23:34:34.418Z,10.90
2019-03-10T23:37:03.865Z,10.90
2019-03-10T23:39:33.297Z,10.90
2019-03-10T23:42:02.910Z,10.80
2019-03-10T23:44:32.494Z,10.70
2019-03-10T23:47:01.755Z,10.60
2019-03-10T23:49:31.334Z,10.50
2019-03-10T23:52:00.725Z,10.40
2019-03-10T23:54:30.155Z,10.40
2019-03-10T23:57:03.705Z,10.30
2019-03-10T23:59:30.430Z,10.20
